Time,TemperatureF,DewpointF,PressureIn,WindDirection,WindDirectionDegrees,WindSpeedMPH,WindSpeedGustMPH,Humidity,HourlyPrecipIn,Conditions,Clouds,dailyrainin,SoftwareType,DateUTC
2013-06-24 00:04:00,66.3,65.0,30.25,ESE,110,0.0,0.0,94,0.00,,,0.00,weatherlink.com 1.10,2013-06-24 04:04:00,
2013-06-24 00:19:00,66.1,65.0,30.26,ESE,110,0.0,0.0,95,0.00,,,0.00,weatherlink.com 1.10,2013-06-24 04:19:00,
2013-06-24 00:34:00,66.1,65.0,30.25,ESE,110,0.0,1.0,95,0.00,,,0.00,weatherlink.com 1.10,2013-06-24 04:34:00,
2013-06-24 00:49:00,66.0,65.0,30.24,ESE,110,0.0,0.0,96,0.01,,,0.01,weatherlink.com 1.10,2013-06-24 04:49:00,
2013-06-24 01:04:00,65.9,65.0,30.25,ESE,110,0.0,0.0,96,0.01,,,0.01,weatherlink.com 1.10,2013-06-24 05:04:00,
2013-06-24 01:19:00,65.8,65.0,30.25,ESE,110,1.0,2.0,96,0.01,,,0.01,weatherlink.com 1.10,2013-06-24 05:19:00,
2013-06-24 01:34:00,65.7,65.0,30.26,ESE,110,0.0,1.0,96,0.01,,,0.01,weatherlink.com 1.10,2013-06-24 05:34:00,
2013-06-24 02:04:00,65.4,65.0,30.24,ESE,110,0.0,0.0,97,0.00,,,0.01,weatherlink.com 1.10,2013-06-24 06:04:00,
2013-06-24 02:19:00,65.2,64.0,30.23,ESE,110,0.0,0.0,97,0.00,,,0.01,weatherlink.com 1.10,2013-06-24 06:19:00,
2013-06-24 02:34:00,65.1,64.0,30.23,ESE,112,0.0,0.0,97,0.00,,,0.01,weatherlink.com 1.10,2013-06-24 06:34:00,
2013-06-24 02:49:00,64.9,64.0,30.23,ESE,112,0.0,0.0,97,0.00,,,0.01,weatherlink.com 1.10,2013-06-24 06:49:00,
2013-06-24 03:05:00,64.7,64.0,30.23,ESE,112,0.0,0.0,97,0.00,,,0.01,weatherlink.com 1.10,2013-06-24 07:05:00,
2013-06-24 03:35:00,64.4,64.0,30.23,ESE,112,0.0,1.0,97,0.00,,,0.01,weatherlink.com 1.10,2013-06-24 07:35:00,
2013-06-24 03:50:00,64.4,64.0,30.23,ESE,112,0.0,0.0,98,0.00,,,0.01,weatherlink.com 1.10,2013-06-24 07:50:00,
2013-06-24 04:05:00,64.3,64.0,30.23,ESE,112,0.0,0.0,98,0.00,,,0.01,weatherlink.com 1.10,2013-06-24 08:05:00,
2013-06-24 04:35:00,63.8,63.0,30.23,ESE,112,0.0,0.0,98,0.00,,,0.01,weatherlink.com 1.10,2013-06-24 08:35:00,
2013-06-24 04:50:00,63.7,63.0,30.23,ESE,112,0.0,0.0,98,0.00,,,0.01,weatherlink.com 1.10,2013-06-24 08:50:00,
2013-06-24 05:05:00,63.6,63.0,30.23,ESE,112,0.0,0.0,98,0.00,,,0.01,weatherlink.com 1.10,2013-06-24 09:05:00,
2013-06-24 05:20:00,63.5,63.0,30.23,ESE,112,0.0,2.0,98,0.00,,,0.01,weatherlink.com 1.10,2013-06-24 09:20:00,
2013-06-24 05:35:00,63.4,63.0,30.23,ESE,112,0.0,2.0,98,0.00,,,0.01,weatherlink.com 1.10,2013-06-24 09:35:00,
2013-06-24 05:50:00,63.1,63.0,30.23,ESE,112,0.0,0.0,98,0.00,,,0.01,weatherlink.com 1.10,2013-06-24 09:50:00,
2013-06-24 06:05:00,62.8,62.0,30.24,ESE,112,0.0,0.0,98,0.00,,,0.01,weatherlink.com 1.10,2013-06-24 10:05:00,
2013-06-24 06:20:00,62.6,62.0,30.24,ESE,112,0.0,1.0,98,0.00,,,0.01,weatherlink.com 1.10,2013-06-24 10:20:00,
2013-06-24 06:35:00,62.5,62.0,30.24,ESE,112,0.0,1.0,98,0.00,,,0.01,weatherlink.com 1.10,2013-06-24 10:35:00,
2013-06-24 07:05:00,62.6,62.0,30.25,ESE,112,0.0,0.0,98,0.00,,,0.01,weatherlink.com 1.10,2013-06-24 11:05:00,
2013-06-24 07:20:00,62.5,62.0,30.25,ESE,113,0.0,2.0,98,0.00,,,0.01,weatherlink.com 1.10,2013-06-24 11:20:00,
2013-06-24 07:35:00,62.9,62.0,30.25,ESE,113,0.0,1.0,98,0.00,,,0.01,weatherlink.com 1.10,2013-06-24 11:35:00,
2013-06-24 07:50:00,63.1,63.0,30.25,South,182,0.0,0.0,98,0.00,,,0.01,weatherlink.com 1.10,2013-06-24 11:50:00,
2013-06-24 08:05:00,63.7,64.0,30.26,South,182,0.0,0.0,99,0.00,,,0.01,weatherlink.com 1.10,2013-06-24 12:05:00,
2013-06-24 08:20:00,64.4,64.0,30.26,South,182,0.0,1.0,99,0.00,,,0.01,weatherlink.com 1.10,2013-06-24 12:20:00,
2013-06-24 08:35:00,65.2,65.0,30.27,South,182,0.0,0.0,99,0.00,,,0.01,weatherlink.com 1.10,2013-06-24 12:35:00,
2013-06-24 09:05:00,66.6,66.0,30.27,South,182,1.0,1.0,99,0.00,,,0.01,weatherlink.com 1.10,2013-06-24 13:05:00,
2013-06-24 09:35:00,68.1,68.0,30.27,South,182,0.0,1.0,99,0.00,,,0.01,weatherlink.com 1.10,2013-06-24 13:35:00,
2013-06-24 09:50:00,69.3,69.0,30.27,South,182,0.0,2.0,97,0.00,,,0.01,weatherlink.com 1.10,2013-06-24 13:50:00,
2013-06-24 10:05:00,71.3,69.0,30.27,South,182,1.0,2.0,92,0.00,,,0.01,weatherlink.com 1.10,2013-06-24 14:05:00,
2013-06-24 10:20:00,72.6,69.0,30.27,West,259,2.0,4.0,89,0.00,,,0.01,weatherlink.com 1.10,2013-06-24 14:20:00,
2013-06-24 10:35:00,74.5,69.0,30.27,West,269,1.0,3.0,83,0.00,,,0.01,weatherlink.com 1.10,2013-06-24 14:35:00,
2013-06-24 10:50:00,75.7,70.0,30.27,SW,217,0.0,2.0,82,0.00,,,0.01,weatherlink.com 1.10,2013-06-24 14:50:00,
2013-06-24 11:05:00,77.2,68.0,30.27,SW,234,0.0,4.0,74,0.00,,,0.01,weatherlink.com 1.10,2013-06-24 15:05:00,
2013-06-24 11:21:00,78.1,68.0,30.26,WSW,245,1.0,4.0,71,0.00,,,0.01,weatherlink.com 1.10,2013-06-24 15:21:00,
2013-06-24 11:36:00,78.9,68.0,30.26,SSE,163,1.0,5.0,70,0.00,,,0.01,weatherlink.com 1.10,2013-06-24 15:36:00,
2013-06-24 11:51:00,79.3,66.0,30.26,West,266,2.0,7.0,64,0.00,,,0.01,weatherlink.com 1.10,2013-06-24 15:51:00,
2013-06-24 12:06:00,80.2,69.0,30.25,West,265,0.0,3.0,68,0.00,,,0.01,weatherlink.com 1.10,2013-06-24 16:06:00,
2013-06-24 12:21:00,81.0,69.0,30.25,West,281,1.0,3.0,67,0.00,,,0.01,weatherlink.com 1.10,2013-06-24 16:21:00,
2013-06-24 12:51:00,81.1,69.0,30.24,West,279,0.0,3.0,66,0.00,,,0.01,weatherlink.com 1.10,2013-06-24 16:51:00,
2013-06-24 13:21:00,80.5,70.0,30.23,WNW,292,0.0,3.0,71,0.00,,,0.01,weatherlink.com 1.10,2013-06-24 17:21:00,
2013-06-24 13:36:00,80.6,70.0,30.22,WNW,286,0.0,3.0,70,0.00,,,0.01,weatherlink.com 1.10,2013-06-24 17:36:00,
2013-06-24 13:51:00,80.7,70.0,30.21,WNW,286,0.0,2.0,70,0.00,,,0.01,weatherlink.com 1.10,2013-06-24 17:51:00,
2013-06-24 14:06:00,81.0,69.0,30.21,WNW,286,0.0,2.0,67,0.00,,,0.01,weatherlink.com 1.10,2013-06-24 18:06:00,
2013-06-24 14:36:00,81.5,69.0,30.19,South,180,3.0,4.0,66,0.00,,,0.01,weatherlink.com 1.10,2013-06-24 18:36:00,
2013-06-24 14:51:00,80.4,70.0,30.19,West,270,1.0,6.0,71,0.00,,,0.01,weatherlink.com 1.10,2013-06-24 18:51:00,
2013-06-24 15:06:00,79.6,69.0,30.18,NW,305,0.0,2.0,69,0.00,,,0.01,weatherlink.com 1.10,2013-06-24 19:06:00,
2013-06-24 15:36:00,80.6,70.0,30.18,ENE,65,0.0,2.0,71,0.00,,,0.01,weatherlink.com 1.10,2013-06-24 19:36:00,
2013-06-24 15:51:00,80.8,69.0,30.17,ENE,74,0.0,3.0,67,0.00,,,0.01,weatherlink.com 1.10,2013-06-24 19:51:00,
2013-06-24 16:06:00,80.7,69.0,30.16,NW,304,1.0,3.0,67,0.00,,,0.01,weatherlink.com 1.10,2013-06-24 20:06:00,
2013-06-24 16:21:00,81.0,69.0,30.16,SSW,211,0.0,2.0,66,0.00,,,0.01,weatherlink.com 1.10,2013-06-24 20:21:00,
2013-06-24 16:51:00,81.4,68.0,30.16,SSE,148,0.0,2.0,64,0.00,,,0.01,weatherlink.com 1.10,2013-06-24 20:51:00,
2013-06-24 17:06:00,81.7,70.0,30.16,SE,145,0.0,3.0,67,0.00,,,0.01,weatherlink.com 1.10,2013-06-24 21:06:00,
2013-06-24 17:21:00,82.4,70.0,30.15,NW,307,1.0,3.0,66,0.00,,,0.01,weatherlink.com 1.10,2013-06-24 21:21:00,
2013-06-24 17:36:00,82.5,71.0,30.15,NW,310,0.0,2.0,69,0.00,,,0.01,weatherlink.com 1.10,2013-06-24 21:36:00,
2013-06-24 17:51:00,83.4,72.0,30.14,NW,309,0.0,1.0,68,0.00,,,0.01,weatherlink.com 1.10,2013-06-24 21:51:00,
2013-06-24 18:06:00,83.6,72.0,30.14,NW,310,0.0,2.0,68,0.00,,,0.01,weatherlink.com 1.10,2013-06-24 22:06:00,
2013-06-24 18:21:00,83.0,72.0,30.14,NW,310,0.0,2.0,69,0.00,,,0.01,weatherlink.com 1.10,2013-06-24 22:21:00,
2013-06-24 18:36:00,81.6,71.0,30.14,NW,310,0.0,2.0,70,0.00,,,0.01,weatherlink.com 1.10,2013-06-24 22:36:00,
2013-06-24 18:51:00,80.2,71.0,30.14,NW,310,0.0,2.0,73,0.00,,,0.01,weatherlink.com 1.10,2013-06-24 22:51:00,
2013-06-24 19:06:00,79.3,70.0,30.14,WSW,237,0.0,2.0,72,0.00,,,0.01,weatherlink.com 1.10,2013-06-24 23:06:00,
2013-06-24 19:21:00,78.6,69.0,30.15,SE,144,0.0,2.0,73,0.00,,,0.01,weatherlink.com 1.10,2013-06-24 23:21:00,
2013-06-24 19:36:00,78.0,68.0,30.15,SE,144,0.0,1.0,72,0.00,,,0.01,weatherlink.com 1.10,2013-06-24 23:36:00,
2013-06-24 20:06:00,77.5,69.0,30.17,SE,144,0.0,0.0,75,0.00,,,0.01,weatherlink.com 1.10,2013-06-25 00:06:00,
2013-06-24 20:21:00,76.6,67.0,30.16,SE,144,0.0,1.0,71,0.00,,,0.01,weatherlink.com 1.10,2013-06-25 00:21:00,
2013-06-24 20:36:00,75.9,67.0,30.17,SE,144,0.0,0.0,75,0.01,,,0.02,weatherlink.com 1.10,2013-06-25 00:36:00,
2013-06-24 20:51:00,73.6,70.0,30.17,SE,143,0.0,0.0,87,0.09,,,0.10,weatherlink.com 1.10,2013-06-25 00:51:00,
2013-06-24 21:06:00,72.2,70.0,30.17,SE,144,0.0,0.0,91,0.09,,,0.10,weatherlink.com 1.10,2013-06-25 01:06:00,
2013-06-24 21:21:00,71.5,69.0,30.18,SE,144,0.0,0.0,92,0.09,,,0.10,weatherlink.com 1.10,2013-06-25 01:21:00,
2013-06-24 21:36:00,71.0,69.0,30.18,SE,144,0.0,0.0,93,0.08,,,0.10,weatherlink.com 1.10,2013-06-25 01:36:00,
2013-06-24 21:51:00,70.4,69.0,30.17,SE,144,0.0,0.0,94,0.00,,,0.10,weatherlink.com 1.10,2013-06-25 01:51:00,
2013-06-24 22:06:00,70.0,68.0,30.18,SE,144,0.0,2.0,94,0.00,,,0.10,weatherlink.com 1.10,2013-06-25 02:06:00,
2013-06-24 22:21:00,69.7,68.0,30.19,SE,144,0.0,0.0,95,0.00,,,0.10,weatherlink.com 1.10,2013-06-25 02:21:00,
2013-06-24 22:36:00,69.5,68.0,30.19,SE,144,0.0,0.0,95,0.00,,,0.10,weatherlink.com 1.10,2013-06-25 02:36:00,
2013-06-24 22:51:00,69.2,68.0,30.19,SE,144,0.0,1.0,95,0.00,,,0.10,weatherlink.com 1.10,2013-06-25 02:51:00,
2013-06-24 23:06:00,68.8,67.0,30.19,SE,144,0.0,0.0,95,0.00,,,0.10,weatherlink.com 1.10,2013-06-25 03:06:00,
2013-06-24 23:21:00,68.7,68.0,30.20,SE,144,0.0,0.0,96,0.00,,,0.10,weatherlink.com 1.10,2013-06-25 03:21:00,
2013-06-24 23:51:00,68.7,68.0,30.19,SE,144,0.0,0.0,97,0.00,,,0.10,weatherlink.com 1.10,2013-06-25 03:51:00,